Portada
METAR-TAF:

METAR-TAF

Aeropuertos :

Taskent, Uzbekistán

Aeropuerto Internacional de Taskent

latitud: 41-16N, longitud: 069-16E, altitud: 489 m

Observación

El informe se hizo hace 43 minutos, a las 03:30 UTC
Viento 4 kt del este, variando entre este-noreste y sureste
Temperatura 15°C
Humedad 41%
Presión 1020 hPa
Visibilidad 10 km o más
sin nubes por debajo de 1500 m y sin presencia de cumulonimbus.

METAR: UTTT 250330Z 09004KT 060V140 CAVOK 15/02 Q1020 R26R/CLRD70 NOSIG

Hora: 09:13 (04:13 UTC)

Pronóstico

El informe se hizo hace 5 horas y 13 minutos, a las 23:00 UTC
Pronóstico válido del 25 a las 00 UTC al 25 a las 24 UTC
Viento 10 kt del noreste
Visibilidad: 7000 m
Temporalmente
del 25 a las 06 UTC al 25 a las 15 UTC
Viento 10 kt del oeste con ráfagas de 20 kt

TAF: UTTT 242300Z 2500/2524 04010KT 7000 NSC TEMPO 2506/2515 26010G20KT

Observaciones y pronósticos meteorológicos de más de 4000 aeropuertos (mensajes METAR y TAF).

Los puntos amarillos y rojos representan las estaciones disponibles.

Ponga el ratón en el punto deseado para ver el nombre de la estación.

Haga clic para ver las observaciones y los pronósticos meteorológicos.

Para cambiar el mapa : haga clic en los botones verdes con una cruz de color negro para hacer un zoom, en el botón verde con un guión para alejar o en las flechas verdes para mapas adyacentes.


METAR-TAF: